BLACK BUTTE (BLB)

Elevation: 426' · STONY CR basin · Operator: US Army Corps of Engineers

Provisional data, subject to change.
Query executed Saturday at 9:24:21   clock

Select a sensor type for a plot of data.
Note: Reservoir Flows are daily averages.

Earlier

Date RES ELE    STORAGE    RES CHG    TOC STO    ABV TOC    OUTFLOW    INFLOW    PPT INC    TEMP MN    TEMP MX    EVP PAN   
 FEET   AF   AF   AF   AF   CFS   CFS   INCHES   DEG F   DEG F   INCHES  
04/24/2015 454.70 66761 150 136200 -69552 143 290 0.00 10 21 0.17
04/25/2015 454.80 67062 0 136200 -69552 71 241 0.06 11 24 0.22
04/26/2015 454.90 67365 0 136200 -69552 47 220 0.15 8 28 0.23
04/27/2015 455.00 67668 0 136200 -68532 76 255 0.15 19 33 0.30
04/28/2015 455.07 67884 216 136200 -68316 175 305 0.10 14 30 0.25
04/29/2015 455.10 67975 -- 136200 -- 192 259 0.00 13 31 0.24
04/30/2015 455.10 67975 30 136200 -68225 202 231 0.00 20 32 0.33
05/01/2015 455.10 67975 0 136200 -68225 234 259 0.08 18 33 0.29
05/02/2015 455.08 67929 -- 136200 -68285 244 245 0.00 13 31 0.27
05/03/2015 455.09 67945 -- 136200 -68255 215 245 0.00 13 29 0.26
05/04/2015 455.09 67945 0 136200 -68255 223 245 0.00 11 28 0.25
05/05/2015 455.09 67945 -- 136200 -68255 218 237 0.00 10 27 0.22
05/06/2015 455.06 67846 -243 136200 -68498 248 221 0.00 12 27 0.26
05/07/2015 455.02 67733 31 136200 -68467 207 177 0.00 12 25 0.30
05/08/2015 455.04 67793 60 136200 -68407 171 222 0.00 8 26 0.25
05/09/2015 455.10 67975 182 136200 -68225 121 235 0.00 12 30 0.25
05/10/2015 455.20 68279 304 136200 -67921 84 258 0.00 12 27 0.24
05/11/2015 455.30 68584 305 136200 -67616 68 242 0.00 10 24 0.22
05/12/2015 455.33 68676 92 136200 -67524 176 241 0.00 12 21 0.22
05/13/2015 455.34 68707 31 136200 -67493 189 224 0.00 12 22 0.22
05/14/2015 455.37 68798 91 136200 -67402 194 259 0.00 10 24 0.21
05/15/2015 455.38 68829 31 136200 -67371 214 249 0.00 9 23 0.21
05/16/2015 455.38 68829 0 136200 -67371 234 254 0.00 10 24 0.23
05/17/2015 455.38 68829 0 136200 -67371 230 248 0.00 12 25 0.21
05/18/2015 455.38 68834 0 136200 -67371 243 265 0.00 11 26 0.23
05/19/2015 455.37 68786 -31 136200 -67402 257 251 0.00 10 25 0.21
05/20/2015 455.35 68737 -61 136200 -67463 265 263 0.00 13 28 0.25
05/21/2015 455.36 68768 31 136200 -67432 231 268 0.07 11 26 0.25
05/22/2015 455.38 68829 61 136200 -67371 200 253 0.04 12 27 0.25
05/23/2015 -- -- -- -- -- -- -- -- -- -- --

Later | Latest

Warning! This data is preliminary and subject to revision.

Show BLB Map | Plot BLB Data | 1 Month BLB Data | Real-Time BLB Data | BLB Info